Aroma Park, Illinois
Current Conditions -  °F | °C
As of 10:35 AM on Tuesday 27 Jan 2015 (Local Time) from KIKK Reporting Station
Overcast Overcast  
Wind Chill: 22°   Ceiling: 4700
Heat Index: 28°   Visibility: 10mi
Dew Point: 24°   Wind: 6mph
Humidity: 85%   Direction: 50°NE
Pressure: 30.16"   Gusts: NA
Location:  41.08°N, 87.81°W
Report Text: KIKK 271635Z AUTO 05005KT 10SM SCT010 SCT015 OVC047 M02/M04 A3016 RMK AO2 T10211043
Loading
Personal Weather Stations






























Interactive Weather Map New forecast layout! Learn more

10-Day Weather Forecast

Advertisements
Track Severe Weather on mobile